Weather History for K82V - December, 2013

Change the Weather History Date:

Thursday, December 26, 2013

  Actual Average (KCYS) Record (KCYS)
Temperature  
Mean Temperature 32 °F 28 °F  
Max Temperature 46 °F 38 °F 59 °F (1980)
Min Temperature 17 °F 17 °F -11 °F (1916)
Degree Days  
Heating Degree Days 34 37  
Month to date heating degree days 972  
Since 1 July heating degree days 2720  
Cooling Degree Days 0 0  
Month to date cooling degree days 0  
Year to date cooling degree days 348  
Moisture  
Dew Point 14 °F    
Average Humidity 49    
Maximum Humidity 86    
Minimum Humidity 25    
Precipitation  
Precipitation 0.00 in 0.01 in 0.15 in (1877)
Month to date precipitation 0.42  
Year to date precipitation 15.87  
Snow  
Snow 0.00 in 0.30 in 2.10 in (1877)
Month to date snowfall 7.2  
Since 1 July snowfall 21.5  
Snow Depth -    
Sea Level Pressure  
Sea Level Pressure 30.22 in    
Wind  
Wind Speed 10 mph (West)    
Max Wind Speed 23 mph    
Max Gust Speed 29 mph    
Visibility 10 miles    
Events      
T = Trace of Precipitation, MM = Missing Value Source: NWS Daily Summary

Daily Weather History Graph

Daily Weather History Graph

Search for Another Location

Airport or City:

Trip Planner

Search our weather history database for the weather conditions in past years. The results will help you decide how hot, cold, wet, or windy it might be!

Date:

Astronomy

Dec. 26, 2013 Rise Set
Actual Time 7:20 AM MST 4:34 PM MST
Civil Twilight 6:49 AM MST 5:05 PM MST
Nautical Twilight 6:14 AM MST 5:39 PM MST
Astronomical Twilight 5:41 AM MST 6:13 PM MST
Moon 12:49 AM MST (12/26) 12:13 PM MST (12/26)
Length of Visible Light 10h 15m
Length of Day
9h 13m
Last Quarter, 38% of the Moon is Illuminated
Dec 26
Last Quarter
Jan 1
New
Jan 7
First Quarter
Jan 15
Full
Jan 23
Last Quarter

Hourly Weather History & Observations

Time (MST) Temp. Windchill Dew Point Humidity Pressure Visibility Wind Dir Wind Speed Gust Speed Precip Events Conditions
12:15 AM 19.4 °F 12.8 °F 12.2 °F 74% 30.17 in 10.0 mi South 4.6 mph - N/A   Clear
12:35 AM 17.6 °F 10.7 °F 12.2 °F 79% 30.17 in 10.0 mi SSE 4.6 mph - N/A   Clear
12:55 AM 19.4 °F - 12.2 °F 74% 30.16 in 10.0 mi Calm Calm - N/A   Clear
1:15 AM 26.6 °F 21.2 °F 12.2 °F 55% 30.15 in 10.0 mi South 4.6 mph - N/A   Clear
1:35 AM 32.0 °F 23.0 °F 8.6 °F 38% 30.13 in 10.0 mi West 11.5 mph 18.4 mph N/A   Clear
1:55 AM 32.0 °F 23.0 °F 10.4 °F 41% 30.14 in 10.0 mi WSW 11.5 mph - N/A   Clear
2:15 AM 32.0 °F 23.6 °F 8.6 °F 38% 30.15 in 10.0 mi WSW 10.4 mph - N/A   Clear
2:35 AM 28.4 °F 24.6 °F 10.4 °F 47% 30.16 in 10.0 mi East 3.5 mph - N/A   Clear
2:55 AM 28.4 °F 22.2 °F 10.4 °F 47% 30.15 in 10.0 mi SW 5.8 mph - N/A   Clear
3:15 AM 30.2 °F 23.4 °F 10.4 °F 44% 30.15 in 10.0 mi West 6.9 mph - N/A   Clear
3:35 AM 32.0 °F 21.6 °F 10.4 °F 41% 30.15 in 10.0 mi WNW 15.0 mph - N/A   Clear
3:55 AM 30.2 °F 21.3 °F 10.4 °F 44% 30.16 in 10.0 mi NW 10.4 mph - N/A   Clear
4:15 AM 32.0 °F 21.2 °F 10.4 °F 41% 30.16 in 10.0 mi WNW 16.1 mph 20.7 mph N/A   Clear
4:35 AM 32.0 °F 20.5 °F 10.4 °F 41% 30.16 in 10.0 mi WNW 18.4 mph - N/A   Clear
4:55 AM 33.8 °F 21.9 °F 10.4 °F 38% 30.17 in 10.0 mi WNW 21.9 mph 28.8 mph N/A   Clear
5:15 AM 32.0 °F 20.8 °F 10.4 °F 41% 30.18 in 10.0 mi WNW 17.3 mph - N/A   Clear
5:35 AM 33.8 °F 22.5 °F 10.4 °F 38% 30.19 in 10.0 mi WNW 19.6 mph 26.5 mph N/A   Clear
5:55 AM 32.0 °F 20.8 °F 10.4 °F 41% 30.20 in 10.0 mi WNW 17.3 mph - N/A   Clear
6:15 AM 32.0 °F 19.2 °F 10.4 °F 41% 30.19 in 10.0 mi WNW 23.0 mph 28.8 mph N/A   Clear
6:35 AM 32.0 °F 20.8 °F 10.4 °F 41% 30.21 in 10.0 mi WNW 17.3 mph 24.2 mph N/A   Clear
6:55 AM 32.0 °F 22.1 °F 10.4 °F 41% 30.22 in 10.0 mi WNW 13.8 mph - N/A   Clear
7:15 AM 32.0 °F 21.2 °F 12.2 °F 44% 30.22 in 10.0 mi WNW 16.1 mph - N/A   Clear
7:35 AM 32.0 °F 20.8 °F 12.2 °F 44% 30.23 in 10.0 mi WNW 17.3 mph 21.9 mph N/A   Clear
7:55 AM 32.0 °F 21.6 °F 14.0 °F 48% 30.24 in 10.0 mi WNW 15.0 mph - N/A   Clear
8:15 AM 32.0 °F 21.2 °F 14.0 °F 48% 30.25 in 10.0 mi WNW 16.1 mph - N/A   Clear
8:35 AM 33.8 °F 23.5 °F 12.2 °F 41% 30.26 in 10.0 mi WNW 16.1 mph - N/A   Clear
8:55 AM 35.6 °F 26.6 °F 12.2 °F 38% 30.27 in 10.0 mi WNW 13.8 mph - N/A   Clear
9:15 AM 35.6 °F 26.2 °F 14.0 °F 41% 30.27 in 10.0 mi WNW 15.0 mph - N/A   Clear
9:35 AM 35.6 °F 25.9 °F 14.0 °F 41% 30.28 in 10.0 mi WNW 16.1 mph - N/A   Clear
9:55 AM 37.4 °F 28.9 °F 14.0 °F 38% 30.29 in 10.0 mi WNW 13.8 mph 18.4 mph N/A   Clear
10:15 AM 39.2 °F 30.2 °F 12.2 °F 33% 30.29 in 10.0 mi WNW 17.3 mph 21.9 mph N/A   Clear
10:35 AM 39.2 °F 30.8 °F 12.2 °F 33% 30.29 in 10.0 mi WNW 15.0 mph - N/A   Clear
10:55 AM 42.8 °F 35.1 °F 12.2 °F 29% 30.27 in 10.0 mi WNW 16.1 mph - N/A   Clear
11:15 AM 44.6 °F 36.6 °F 12.2 °F 27% 30.26 in 10.0 mi NW 19.6 mph 24.2 mph N/A   Clear
11:35 AM 44.6 °F 36.9 °F 12.2 °F 27% 30.25 in 10.0 mi NW 18.4 mph - N/A   Clear
11:55 AM 44.6 °F 38.1 °F 12.2 °F 27% 30.24 in 10.0 mi NW 13.8 mph - N/A   Clear
12:15 PM 46.4 °F 39.8 °F 12.2 °F 25% 30.23 in 10.0 mi NW 16.1 mph - N/A   Clear
12:35 PM 46.4 °F 39.8 °F 14.0 °F 27% 30.23 in 10.0 mi NW 16.1 mph - N/A   Clear
12:55 PM 46.4 °F 39.2 °F 12.2 °F 25% 30.23 in 10.0 mi NNW 18.4 mph - N/A   Clear
1:15 PM 46.4 °F 40.1 °F 14.0 °F 27% 30.23 in 10.0 mi NW 15.0 mph 21.9 mph N/A   Clear
1:35 PM 46.4 °F 40.1 °F 14.0 °F 27% 30.23 in 10.0 mi NNW 15.0 mph 19.6 mph N/A   Clear
1:55 PM 46.4 °F 41.1 °F 14.0 °F 27% 30.22 in 10.0 mi NNW 11.5 mph - N/A   Clear
2:15 PM 44.6 °F 39.2 °F 14.0 °F 29% 30.22 in 10.0 mi NNW 10.4 mph - N/A   Clear
2:35 PM 46.4 °F 41.1 °F 14.0 °F 27% 30.22 in 10.0 mi NNW 11.5 mph - N/A   Clear
2:55 PM 46.4 °F 41.1 °F 14.0 °F 27% 30.22 in 10.0 mi North 11.5 mph - N/A   Clear
3:15 PM 44.6 °F 42.2 °F 17.6 °F 34% 30.22 in 10.0 mi North 4.6 mph - N/A   Clear
3:35 PM 42.8 °F - 17.6 °F 36% 30.24 in 10.0 mi Calm Calm - N/A   Clear
3:55 PM 44.6 °F - 17.6 °F 34% 30.24 in 10.0 mi Calm Calm - N/A   Clear
4:15 PM 39.2 °F 37.0 °F 17.6 °F 42% 30.23 in 10.0 mi NNW 3.5 mph - N/A   Clear
4:35 PM 37.4 °F - 19.4 °F 48% 30.24 in 10.0 mi Calm Calm - N/A   Clear
4:55 PM 35.6 °F 29.2 °F 19.4 °F 52% 30.24 in 10.0 mi SW 8.1 mph - N/A   Clear
5:15 PM 33.8 °F 27.0 °F 19.4 °F 56% 30.24 in 10.0 mi SW 8.1 mph - N/A   Clear
5:35 PM 32.0 °F 25.6 °F 19.4 °F 60% 30.24 in 10.0 mi WSW 6.9 mph - N/A   Clear
5:55 PM 32.0 °F 26.4 °F 19.4 °F 60% 30.25 in 10.0 mi West 5.8 mph - N/A   Clear
6:15 PM 28.4 °F 19.7 °F 19.4 °F 69% 30.25 in 10.0 mi West 9.2 mph - N/A   Clear
6:35 PM 28.4 °F 21.2 °F 19.4 °F 69% 30.25 in 10.0 mi West 6.9 mph - N/A   Clear
6:55 PM 30.2 °F 22.6 °F 19.4 °F 64% 30.26 in 10.0 mi WSW 8.1 mph - N/A   Clear
7:15 PM 30.2 °F 22.6 °F 19.4 °F 64% 30.26 in 10.0 mi West 8.1 mph - N/A   Clear
7:35 PM 28.4 °F 19.7 °F 19.4 °F 69% 30.26 in 10.0 mi West 9.2 mph - N/A   Clear
7:55 PM 30.2 °F 22.6 °F 19.4 °F 64% 30.26 in 10.0 mi West 8.1 mph - N/A   Clear
8:15 PM 30.2 °F 22.6 °F 19.4 °F 64% 30.25 in 10.0 mi WSW 8.1 mph - N/A   Clear
8:35 PM 30.2 °F 21.9 °F 19.4 °F 64% 30.25 in 10.0 mi WSW 9.2 mph - N/A   Clear
8:55 PM 28.4 °F 20.4 °F 19.4 °F 69% 30.26 in 10.0 mi West 8.1 mph - N/A   Clear
9:15 PM 26.6 °F - 17.6 °F 69% 30.26 in 10.0 mi Calm Calm - N/A   Clear
9:35 PM 26.6 °F - 17.6 °F 69% 30.26 in 10.0 mi Calm Calm - N/A   Clear
9:55 PM 23.0 °F 18.4 °F 17.6 °F 80% 30.26 in 10.0 mi SW 3.5 mph - N/A   Clear
10:15 PM 23.0 °F 15.8 °F 17.6 °F 80% 30.25 in 10.0 mi South 5.8 mph - N/A   Clear
10:35 PM 23.0 °F 13.9 °F 17.6 °F 80% 30.25 in 10.0 mi SSW 8.1 mph - N/A   Clear
10:55 PM 23.0 °F 14.7 °F 17.6 °F 80% 30.24 in 10.0 mi SSW 6.9 mph - N/A   Clear
11:15 PM 21.2 °F 14.9 °F 17.6 °F 86% 30.24 in 10.0 mi SSW 4.6 mph - N/A   Clear
11:35 PM 21.2 °F 16.4 °F 17.6 °F 86% 30.24 in 10.0 mi SSW 3.5 mph - N/A   Clear
11:55 PM 19.4 °F 11.5 °F 15.8 °F 86% 30.24 in 10.0 mi SSW 5.8 mph - N/A   Clear